Time;durP1;ratioP1;P1;durP2;ratioP2;P2;SDS_P1;SDS_P2;PMS_P1;PMS_P2;Temp;Humidity;BMP_temperature;BMP_pressure;BME280_temperature;BME280_humidity;BME280_pressure;Samples;Min_cycle;Max_cycle;Signal;HPM_P1;HPM_P2
2021/11/27 00:02:04;;;;;;;2.45;1.70;;;;;;;1.24;99.35;96334.53;5063058;28;20045;-61
2021/11/27 00:04:29;;;;;;;1.92;1.70;;;;;;;1.21;99.72;96338.47;5062448;28;20373;-61
2021/11/27 00:06:55;;;;;;;3.40;1.95;;;;;;;1.20;99.12;96344.78;5062701;28;20076;-61
2021/11/27 00:09:21;;;;;;;2.67;1.70;;;;;;;1.16;99.69;96333.16;5064162;28;20039;-61
2021/11/27 00:11:47;;;;;;;3.22;2.10;;;;;;;1.17;99.60;96339.22;5058492;28;20040;-61
2021/11/27 00:14:14;;;;;;;2.25;1.70;;;;;;;1.21;99.36;96335.81;5061071;28;20024;-61
2021/11/27 00:16:39;;;;;;;3.75;1.92;;;;;;;1.21;99.26;96341.09;5062523;28;20056;-61
2021/11/27 00:19:10;;;;;;;6.30;2.00;;;;;;;1.21;99.35;96330.53;5059279;28;20970;-61
2021/11/27 00:21:36;;;;;;;2.20;1.70;;;;;;;1.27;99.06;96334.81;5062689;28;20122;-61
2021/11/27 00:24:02;;;;;;;2.42;1.70;;;;;;;1.21;98.69;96324.47;5064007;28;21628;-61
2021/11/27 00:26:27;;;;;;;2.33;1.60;;;;;;;1.29;98.90;96329.28;5063079;28;20048;-61
2021/11/27 00:28:53;;;;;;;1.83;1.52;;;;;;;1.26;99.30;96332.44;5063744;28;20044;-61
2021/11/27 00:31:23;;;;;;;2.03;1.60;;;;;;;1.22;99.65;96331.34;5063437;28;20067;-61
2021/11/27 00:33:49;;;;;;;1.90;1.52;;;;;;;1.24;99.64;96329.25;5063691;28;20032;-61
2021/11/27 00:36:14;;;;;;;2.50;1.90;;;;;;;1.25;100.00;96330.84;5060001;28;20797;-61
2021/11/27 00:38:41;;;;;;;3.10;1.90;;;;;;;1.25;100.00;96330.84;5061077;28;20033;-61
2021/11/27 00:41:07;;;;;;;2.15;1.77;;;;;;;1.18;100.00;96323.13;5060140;28;20115;-61
2021/11/27 00:43:33;;;;;;;2.88;1.90;;;;;;;1.21;100.00;96329.75;5059211;28;20027;-61
2021/11/27 00:45:59;;;;;;;1.85;1.67;;;;;;;1.24;100.00;96318.69;5057947;28;20029;-61
2021/11/27 00:48:25;;;;;;;3.00;2.05;;;;;;;1.31;100.00;96329.81;5062749;28;20689;-61
2021/11/27 00:51:09;;;;;;;2.13;1.70;;;;;;;1.35;100.00;96328.28;5060429;28;20163;-61
2021/11/27 00:53:35;;;;;;;2.15;1.60;;;;;;;1.36;99.69;96321.94;5060590;28;20089;-61
2021/11/27 00:56:01;;;;;;;2.35;1.60;;;;;;;1.32;99.84;96325.34;5058970;28;20053;-61
2021/11/27 00:58:26;;;;;;;2.80;1.75;;;;;;;1.33;99.95;96327.72;5055808;28;20043;-61
2021/11/27 01:00:56;;;;;;;2.75;1.67;;;;;;;1.35;100.00;96322.19;5061670;28;20045;-61
2021/11/27 01:03:24;;;;;;;2.15;1.60;;;;;;;1.34;99.38;96323.25;5063055;28;20494;-61
2021/11/27 01:05:49;;;;;;;2.17;1.85;;;;;;;1.33;100.00;96327.72;5062960;28;20398;-61
2021/11/27 01:08:15;;;;;;;2.08;1.77;;;;;;;1.39;99.93;96323.28;5064206;28;20028;-61
2021/11/27 01:10:47;;;;;;;1.98;1.70;;;;;;;1.32;100.00;96320.84;5067032;28;20044;-61
2021/11/27 01:13:13;;;;;;;2.05;1.63;;;;;;;1.35;100.00;96314.25;5058000;28;20029;-61
2021/11/27 01:15:39;;;;;;;6.10;1.83;;;;;;;1.40;99.79;96314.28;5062270;28;20123;-61
2021/11/27 01:18:04;;;;;;;3.15;1.90;;;;;;;1.35;100.00;96315.09;5061039;28;20021;-61
2021/11/27 01:20:33;;;;;;;2.72;1.70;;;;;;;1.33;99.91;96317.19;5060582;28;20140;-61
2021/11/27 01:22:59;;;;;;;2.38;1.70;;;;;;;1.40;99.84;96315.13;5059693;28;20525;-60
2021/11/27 01:25:24;;;;;;;2.47;1.80;;;;;;;1.40;99.99;96316.94;5061408;28;20483;-61
2021/11/27 01:27:50;;;;;;;2.75;1.80;;;;;;;1.33;100.00;96311.91;5061900;28;20056;-60
2021/11/27 01:30:16;;;;;;;1.95;1.67;;;;;;;1.44;99.97;96302.97;5062607;28;20077;-62
2021/11/27 01:32:43;;;;;;;2.22;1.70;;;;;;;1.38;100.00;96296.09;5058360;28;20075;-62
2021/11/27 01:35:09;;;;;;;2.20;1.80;;;;;;;1.36;100.00;96300.81;5056494;28;20800;-62
2021/11/27 01:37:35;;;;;;;2.67;1.50;;;;;;;1.37;100.00;96297.13;5060472;28;20580;-62
2021/11/27 01:40:03;;;;;;;2.00;1.50;;;;;;;1.36;100.00;96306.09;5060998;28;20040;-60
2021/11/27 01:42:28;;;;;;;2.35;1.98;;;;;;;1.37;100.00;96297.13;5061856;28;20123;-62
2021/11/27 01:44:54;;;;;;;2.65;1.70;;;;;;;1.31;100.00;96298.16;5054512;28;20764;-61
2021/11/27 01:47:19;;;;;;;2.88;2.15;;;;;;;1.36;99.87;96289.47;5057110;28;20136;-60
2021/11/27 01:49:45;;;;;;;2.88;2.10;;;;;;;1.33;100.00;96287.34;5059701;28;20037;-61
2021/11/27 01:52:10;;;;;;;2.92;1.70;;;;;;;1.34;100.00;96288.94;5054009;28;20049;-61
2021/11/27 01:54:36;;;;;;;4.93;1.90;;;;;;;1.30;100.00;96291.31;5057225;28;20639;-61
2021/11/27 01:57:03;;;;;;;2.30;1.70;;;;;;;1.32;100.00;96291.81;5059642;28;20044;-61
2021/11/27 01:59:29;;;;;;;2.45;1.75;;;;;;;1.34;100.00;96286.28;5060871;28;20036;-61
2021/11/27 02:01:55;;;;;;;2.65;1.75;;;;;;;1.45;100.00;96288.75;5056802;28;20514;-61
2021/11/27 02:04:21;;;;;;;2.30;1.73;;;;;;;1.41;100.00;96292.94;5054961;28;20033;-61
2021/11/27 02:06:46;;;;;;;2.40;1.80;;;;;;;1.49;100.00;96294.28;5057694;28;20079;-61
2021/11/27 02:09:15;;;;;;;3.55;1.85;;;;;;;1.47;100.00;96294.56;5061121;28;20036;-61
2021/11/27 02:11:40;;;;;;;2.58;1.77;;;;;;;1.45;100.00;96290.59;5058083;28;20045;-61
2021/11/27 02:14:07;;;;;;;3.25;2.00;;;;;;;1.45;100.00;96294.03;5057119;28;20506;-61
2021/11/27 02:16:32;;;;;;;3.95;2.00;;;;;;;1.53;100.00;96291.97;5060967;28;20048;-61
2021/11/27 02:18:58;;;;;;;2.95;2.03;;;;;;;1.46;100.00;96300.88;5060699;28;20070;-61
2021/11/27 02:21:23;;;;;;;2.40;1.92;;;;;;;1.47;100.00;96297.22;5059297;28;20059;-61
2021/11/27 02:23:50;;;;;;;3.92;2.10;;;;;;;1.44;100.00;96289.78;5057366;28;20123;-61
2021/11/27 02:26:17;;;;;;;4.70;2.30;;;;;;;1.43;100.00;96296.13;5060190;28;20223;-61
2021/11/27 02:28:48;;;;;;;3.25;2.13;;;;;;;1.47;100.00;96285.84;5055092;28;20058;-61
2021/11/27 02:31:14;;;;;;;3.53;2.00;;;;;;;1.50;100.00;96287.97;5059233;28;20053;-61
2021/11/27 02:33:39;;;;;;;5.20;2.10;;;;;;;1.49;100.00;96279.25;5061601;28;20130;-61
2021/11/27 02:36:05;;;;;;;2.15;1.70;;;;;;;1.50;100.00;96288.78;5061869;28;20114;-61
2021/11/27 02:38:31;;;;;;;3.80;1.98;;;;;;;1.43;100.00;96280.28;5060164;28;20752;-61
2021/11/27 02:40:56;;;;;;;4.85;2.40;;;;;;;1.42;100.00;96277.88;5061004;28;20055;-61
2021/11/27 02:43:22;;;;;;;3.03;2.20;;;;;;;1.40;100.00;96274.69;5056444;28;20028;-60
2021/11/27 02:45:47;;;;;;;3.47;2.30;;;;;;;1.43;100.00;96269.72;5036835;28;20064;-61
2021/11/27 02:48:13;;;;;;;3.22;2.22;;;;;;;1.42;100.00;96268.16;5061335;28;20390;-61
2021/11/27 02:50:38;;;;;;;4.20;2.50;;;;;;;1.41;100.00;96271.81;5057659;28;20070;-63
2021/11/27 02:53:04;;;;;;;3.88;2.22;;;;;;;1.42;100.00;96276.06;5059847;28;20394;-61
2021/11/27 02:55:29;;;;;;;3.55;2.28;;;;;;;1.38;100.00;96274.97;5054235;28;20573;-61
2021/11/27 02:57:55;;;;;;;2.60;1.92;;;;;;;1.47;100.00;96270.81;5056493;28;20098;-61
2021/11/27 03:00:21;;;;;;;6.82;2.60;;;;;;;1.40;100.00;96270.25;5053800;28;20270;-61
2021/11/27 03:02:48;;;;;;;2.88;2.08;;;;;;;1.38;100.00;96269.69;5058452;28;20488;-61
2021/11/27 03:05:14;;;;;;;3.20;2.08;;;;;;;1.34;100.00;96281.81;5074363;28;20119;-61
2021/11/27 03:07:39;;;;;;;3.28;2.13;;;;;;;1.38;100.00;96282.91;5059607;28;20028;-61
2021/11/27 03:10:06;;;;;;;3.20;2.15;;;;;;;1.36;100.00;96281.56;5054116;28;20466;-61
2021/11/27 03:12:32;;;;;;;3.10;2.08;;;;;;;1.32;100.00;96289.19;5053489;28;20025;-61
2021/11/27 03:14:58;;;;;;;2.63;1.90;;;;;;;1.33;100.00;96280.22;5056041;28;20510;-61
2021/11/27 03:17:24;;;;;;;3.63;2.25;;;;;;;1.33;100.00;96290.00;5058833;28;20056;-61
2021/11/27 03:19:50;;;;;;;2.55;1.92;;;;;;;1.31;100.00;96292.88;5060618;28;20111;-61
2021/11/27 03:22:16;;;;;;;3.00;2.05;;;;;;;1.31;100.00;96284.97;5054446;28;20037;-61
2021/11/27 03:24:42;;;;;;;2.55;1.90;;;;;;;1.25;100.00;96281.50;5057918;28;20038;-61
2021/11/27 03:27:08;;;;;;;3.03;2.00;;;;;;;1.28;100.00;96282.84;5058808;28;20044;-61
2021/11/27 03:29:33;;;;;;;4.47;2.03;;;;;;;1.22;100.00;96289.13;5059615;28;20040;-61
2021/11/27 03:32:17;;;;;;;2.00;1.80;;;;;;;1.21;100.00;96296.25;5058749;28;20080;-61
2021/11/27 03:34:43;;;;;;;3.35;1.95;;;;;;;1.22;100.00;96297.03;5061028;28;20032;-61
2021/11/27 03:37:08;;;;;;;3.08;2.00;;;;;;;1.18;100.00;96288.84;5056634;28;20678;-61
2021/11/27 03:39:34;;;;;;;1.90;1.73;;;;;;;1.21;100.00;96298.09;5061506;28;20040;-61
2021/11/27 03:42:01;;;;;;;2.30;1.65;;;;;;;1.13;100.00;96295.94;5051285;28;20043;-61
2021/11/27 03:44:26;;;;;;;2.35;1.73;;;;;;;1.11;100.00;96292.75;5054357;28;20037;-61
2021/11/27 03:46:52;;;;;;;2.40;1.65;;;;;;;1.03;100.00;96291.38;5055171;28;20072;-61
2021/11/27 03:49:22;;;;;;;1.88;1.67;;;;;;;1.00;100.00;96289.22;5059034;28;20028;-61
2021/11/27 03:51:48;;;;;;;1.75;1.58;;;;;;;0.95;100.00;96290.00;5059123;28;20380;-61
2021/11/27 03:54:13;;;;;;;2.00;1.58;;;;;;;0.91;100.00;96299.47;5060814;28;20028;-61
2021/11/27 03:56:39;;;;;;;3.00;1.48;;;;;;;0.95;100.00;96299.75;5046316;28;20083;-61
2021/11/27 03:59:05;;;;;;;1.98;1.50;;;;;;;0.96;100.00;96303.97;5041591;28;20029;-61
2021/11/27 04:01:31;;;;;;;2.20;1.63;;;;;;;0.91;100.00;96296.81;5040437;28;20048;-61
2021/11/27 04:03:57;;;;;;;2.20;1.50;;;;;;;0.91;100.00;96303.94;5035293;28;20021;-61
2021/11/27 04:06:22;;;;;;;1.75;1.55;;;;;;;0.92;100.00;96306.31;5038622;28;20068;-61
2021/11/27 04:08:48;;;;;;;1.73;1.25;;;;;;;0.89;100.00;96301.56;5040732;28;20402;-61
2021/11/27 04:11:13;;;;;;;1.40;1.30;;;;;;;0.85;100.00;96301.28;5040500;28;20390;-61
2021/11/27 04:13:39;;;;;;;1.40;1.30;;;;;;;0.69;100.00;96296.91;5035696;28;20507;-60
2021/11/27 04:16:05;;;;;;;1.88;1.58;;;;;;;0.67;100.00;96298.19;5046052;28;20048;-61
2021/11/27 04:18:30;;;;;;;4.40;1.42;;;;;;;0.60;100.00;96308.94;5062724;28;20032;-61
2021/11/27 04:20:57;;;;;;;1.75;1.40;;;;;;;0.54;100.00;96316.00;5067644;28;20070;-61
2021/11/27 04:23:23;;;;;;;1.60;1.50;;;;;;;0.50;100.00;96314.94;5061749;28;20044;-61
2021/11/27 04:25:48;;;;;;;1.40;1.30;;;;;;;0.45;100.00;96321.97;5062196;28;20056;-61
2021/11/27 04:28:14;;;;;;;1.52;1.40;;;;;;;0.47;100.00;96319.91;5064595;28;20662;-61
2021/11/27 04:30:40;;;;;;;1.88;1.50;;;;;;;0.46;100.00;96334.13;5055107;28;20517;-61
2021/11/27 04:33:05;;;;;;;1.48;1.30;;;;;;;0.52;100.00;96323.38;5031188;28;20238;-61
2021/11/27 04:35:32;;;;;;;1.35;1.25;;;;;;;0.53;100.00;96335.53;5041868;28;20478;-61
2021/11/27 04:37:58;;;;;;;2.72;1.55;;;;;;;0.61;100.00;96342.19;5067022;28;20135;-61
2021/11/27 04:40:24;;;;;;;1.65;1.40;;;;;;;0.65;100.00;96343.28;5061070;28;20758;-61
2021/11/27 04:42:50;;;;;;;1.40;1.30;;;;;;;0.73;100.00;96347.31;5037554;28;20106;-61
2021/11/27 04:45:15;;;;;;;1.40;1.30;;;;;;;0.79;100.00;96341.03;5038028;28;20037;-61
2021/11/27 04:47:41;;;;;;;3.95;1.40;;;;;;;0.89;100.00;96348.22;5043978;28;20067;-61
2021/11/27 04:50:07;;;;;;;1.75;1.50;;;;;;;0.85;100.00;96350.59;5042011;28;20823;-61
2021/11/27 04:52:33;;;;;;;1.33;1.25;;;;;;;0.93;100.00;96355.38;5042852;28;20757;-61
2021/11/27 04:54:59;;;;;;;1.67;1.40;;;;;;;0.96;100.00;96354.88;5040997;28;20029;-61
2021/11/27 04:57:24;;;;;;;1.40;1.30;;;;;;;0.90;100.00;96360.34;5044029;28;20461;-61
2021/11/27 04:59:50;;;;;;;1.27;1.13;;;;;;;0.89;100.00;96364.84;5046497;28;20656;-60
2021/11/27 05:02:15;;;;;;;1.48;1.30;;;;;;;0.90;100.00;96365.63;5044882;28;20049;-60
2021/11/27 05:04:41;;;;;;;1.40;1.30;;;;;;;0.97;100.00;96366.22;5040482;28;20049;-60
2021/11/27 05:07:07;;;;;;;1.40;1.30;;;;;;;1.03;100.00;96371.31;5038321;28;20068;-61
2021/11/27 05:09:32;;;;;;;1.38;1.27;;;;;;;0.96;100.00;96375.97;5039476;28;20132;-61
2021/11/27 05:11:58;;;;;;;1.90;1.45;;;;;;;0.98;100.00;96378.38;5043017;28;20048;-61
2021/11/27 05:14:23;;;;;;;1.20;1.10;;;;;;;0.97;100.00;96374.94;5040199;28;20083;-61
2021/11/27 05:16:49;;;;;;;1.52;1.40;;;;;;;0.94;100.00;96375.44;5040421;28;20036;-61
2021/11/27 05:19:14;;;;;;;1.83;1.50;;;;;;;0.95;100.00;96379.69;5043699;28;20440;-61
2021/11/27 05:21:40;;;;;;;1.63;1.40;;;;;;;0.95;100.00;96392.03;5039637;28;20033;-61
2021/11/27 05:24:05;;;;;;;2.05;1.50;;;;;;;0.98;100.00;96400.28;5043423;28;20056;-61
2021/11/27 05:26:31;;;;;;;2.00;1.48;;;;;;;0.96;100.00;96391.03;5040629;28;20045;-61
2021/11/27 05:28:57;;;;;;;1.58;1.45;;;;;;;0.99;100.00;96396.56;5043840;28;20056;-61
2021/11/27 05:31:23;;;;;;;1.67;1.50;;;;;;;1.02;100.00;96401.38;5040457;28;20076;-60
2021/11/27 05:36:39;;;;;;;2.35;1.67;;;;;;;1.01;100.00;96402.41;5037817;28;20037;-61
2021/11/27 05:39:05;;;;;;;2.22;1.80;;;;;;;1.02;100.00;96401.38;5042445;28;20016;-61
2021/11/27 05:41:30;;;;;;;1.90;1.70;;;;;;;1.10;100.00;96407.22;5039668;28;20041;-61
2021/11/27 05:43:56;;;;;;;3.03;2.10;;;;;;;1.14;100.00;96405.69;5041471;28;20051;-61
2021/11/27 05:46:22;;;;;;;2.45;2.00;;;;;;;1.07;100.00;96417.25;5040022;28;20041;-61
2021/11/27 05:48:48;;;;;;;2.25;1.90;;;;;;;1.08;100.00;96410.13;5039234;28;20037;-61
2021/11/27 05:51:13;;;;;;;2.88;2.00;;;;;;;1.08;100.00;96416.19;5042060;28;20175;-61
2021/11/27 05:53:39;;;;;;;2.42;1.92;;;;;;;1.12;100.00;96410.41;5041361;28;20035;-61
2021/11/27 05:56:04;;;;;;;2.92;2.15;;;;;;;1.08;100.00;96421.47;5039439;28;20037;-61
2021/11/27 05:58:30;;;;;;;3.80;1.83;;;;;;;1.07;100.00;96416.41;5035999;28;20046;-61
2021/11/27 06:00:59;;;;;;;3.25;2.10;;;;;;;1.18;100.00;96414.69;5040939;28;20033;-61
2021/11/27 06:03:25;;;;;;;2.63;2.10;;;;;;;1.13;100.00;96414.66;5031066;28;20049;-61
2021/11/27 06:05:50;;;;;;;2.65;1.98;;;;;;;1.10;100.00;96428.31;5040893;28;20041;-61
2021/11/27 06:08:16;;;;;;;2.22;1.75;;;;;;;1.11;100.00;96425.44;5041432;28;20124;-62
2021/11/27 06:10:41;;;;;;;3.03;2.17;;;;;;;1.07;100.00;96430.44;5040550;28;20851;-61
2021/11/27 06:13:07;;;;;;;3.13;2.25;;;;;;;1.06;100.00;96436.75;5039532;28;20083;-62
2021/11/27 06:15:32;;;;;;;3.50;2.15;;;;;;;1.06;100.00;96436.75;5040992;28;20048;-61
2021/11/27 06:18:01;;;;;;;4.80;1.92;;;;;;;1.03;100.00;96447.78;5037625;28;20033;-61
2021/11/27 06:20:27;;;;;;;5.95;2.38;;;;;;;1.03;100.00;96449.63;5038513;28;20041;-61
2021/11/27 06:22:52;;;;;;;3.60;2.58;;;;;;;1.10;100.00;96465.25;5040266;28;20104;-61
2021/11/27 06:25:18;;;;;;;4.75;2.30;;;;;;;1.07;100.00;96470.00;5040180;28;20072;-61
2021/11/27 06:27:44;;;;;;;3.78;2.38;;;;;;;1.06;100.00;96472.88;5039702;28;20037;-61
2021/11/27 06:30:10;;;;;;;3.63;2.70;;;;;;;1.11;100.00;96472.13;5041689;28;20036;-61
2021/11/27 06:32:35;;;;;;;3.70;2.53;;;;;;;1.00;100.00;96477.31;5039191;28;20029;-61
2021/11/27 06:35:01;;;;;;;3.53;2.60;;;;;;;1.00;100.00;96481.75;5034514;28;20428;-60
2021/11/27 06:37:26;;;;;;;4.63;3.10;;;;;;;1.15;100.00;96481.13;5037674;28;20119;-61
2021/11/27 06:39:52;;;;;;;4.78;2.70;;;;;;;1.13;100.00;96481.38;5041888;28;20588;-61
2021/11/27 06:42:18;;;;;;;2.55;1.83;;;;;;;1.08;100.00;96482.13;5040866;28;20115;-61
2021/11/27 06:44:50;;;;;;;6.75;2.92;;;;;;;1.31;100.00;96492.63;5031699;28;20029;-61
2021/11/27 06:47:16;;;;;;;3.40;2.40;;;;;;;1.12;100.00;96489.53;5035607;28;20048;-61
2021/11/27 06:49:42;;;;;;;3.90;2.42;;;;;;;1.21;100.00;96493.34;5035213;28;20538;-61
2021/11/27 06:52:08;;;;;;;3.22;2.55;;;;;;;1.28;99.99;96493.94;5039967;28;20033;-61
2021/11/27 06:54:33;;;;;;;3.25;2.55;;;;;;;1.28;99.89;96509.78;5035645;28;20302;-61
2021/11/27 06:56:59;;;;;;;4.00;2.67;;;;;;;1.12;99.53;96505.38;5038363;28;20695;-61
2021/11/27 06:59:26;;;;;;;4.22;2.70;;;;;;;1.11;99.76;96503.78;5039990;28;20467;-61
2021/11/27 07:01:52;;;;;;;6.82;3.30;;;;;;;1.26;100.00;96510.00;5038410;28;20045;-61
2021/11/27 07:04:18;;;;;;;5.60;3.00;;;;;;;1.11;100.00;96520.41;5040583;28;20020;-61
2021/11/27 07:06:45;;;;;;;6.32;3.20;;;;;;;1.07;100.00;96520.13;5039043;28;20552;-61
2021/11/27 07:09:11;;;;;;;4.65;3.10;;;;;;;0.99;100.00;96525.81;5040992;28;20029;-61
2021/11/27 07:11:36;;;;;;;5.53;2.67;;;;;;;0.92;100.00;96517.28;5038916;28;20074;-61
2021/11/27 07:14:02;;;;;;;5.07;2.92;;;;;;;1.09;100.00;96538.31;5039536;28;20029;-61
2021/11/27 07:16:27;;;;;;;7.65;3.03;;;;;;;1.22;100.00;96532.69;5039780;28;20041;-61
2021/11/27 07:18:53;;;;;;;4.43;3.03;;;;;;;1.55;100.00;96540.63;5039199;28;20025;-61
2021/11/27 07:21:18;;;;;;;5.75;2.70;;;;;;;1.30;100.00;96544.63;5038113;28;20048;-61
2021/11/27 07:23:44;;;;;;;5.45;2.88;;;;;;;1.33;99.99;96552.03;5039648;28;20090;-61
2021/11/27 07:26:09;;;;;;;3.63;2.63;;;;;;;1.22;99.09;96558.25;5040125;28;20044;-61
2021/11/27 07:28:35;;;;;;;3.65;2.60;;;;;;;1.40;99.46;96565.03;5041756;28;20078;-61
2021/11/27 07:31:02;;;;;;;2.25;1.80;;;;;;;1.18;99.02;96562.44;5036241;28;20079;-61
2021/11/27 07:33:28;;;;;;;4.25;2.97;;;;;;;1.49;100.00;96564.34;5037024;28;20139;-61
2021/11/27 07:35:54;;;;;;;4.00;2.80;;;;;;;1.45;98.44;96563.25;5036442;28;20411;-62
2021/11/27 07:38:20;;;;;;;3.00;2.00;;;;;;;1.23;98.36;96575.69;5030482;28;20030;-61
2021/11/27 07:40:46;;;;;;;4.72;2.75;;;;;;;1.17;98.85;96581.94;5038850;28;20049;-61
2021/11/27 07:43:11;;;;;;;5.03;2.70;;;;;;;1.55;100.00;96585.50;5040145;28;20389;-61
2021/11/27 07:45:37;;;;;;;6.13;3.40;;;;;;;1.47;98.97;96584.94;5040130;28;20060;-61
2021/11/27 07:48:03;;;;;;;4.55;3.00;;;;;;;1.77;100.00;96588.88;5041456;28;20759;-61
2021/11/27 07:50:29;;;;;;;4.13;2.60;;;;;;;0.98;97.73;96589.38;5039586;28;20065;-61
2021/11/27 07:52:55;;;;;;;4.40;2.80;;;;;;;1.21;99.19;96588.31;5039947;28;20029;-61
2021/11/27 07:55:20;;;;;;;8.57;3.60;;;;;;;0.73;98.43;96588.00;5038224;28;20079;-61
2021/11/27 07:57:46;;;;;;;6.57;3.10;;;;;;;0.68;98.96;96595.06;5030231;28;20029;-61
2021/11/27 08:00:12;;;;;;;4.75;3.38;;;;;;;0.66;99.65;96607.69;5039539;28;20029;-61
2021/11/27 08:02:37;;;;;;;4.82;3.40;;;;;;;0.57;99.29;96600.16;5033384;28;20383;-60
2021/11/27 08:05:04;;;;;;;7.05;3.33;;;;;;;0.54;99.36;96605.94;5038956;28;20479;-63
2021/11/27 08:07:29;;;;;;;5.00;3.53;;;;;;;1.04;99.39;96607.66;5039380;28;20043;-62
2021/11/27 08:09:55;;;;;;;6.40;3.38;;;;;;;0.99;97.57;96607.59;5040104;28;20673;-62
2021/11/27 08:12:21;;;;;;;10.45;3.15;;;;;;;0.94;99.07;96612.78;5041742;28;20056;-63
2021/11/27 08:14:47;;;;;;;6.68;3.92;;;;;;;1.31;99.70;96614.03;5034659;28;20062;-62
2021/11/27 08:17:12;;;;;;;5.85;3.70;;;;;;;0.96;95.72;96602.81;5033249;28;20037;-62
2021/11/27 08:19:38;;;;;;;12.75;4.28;;;;;;;1.22;98.16;96613.66;5041205;28;20036;-62
2021/11/27 08:22:03;;;;;;;7.90;4.07;;;;;;;1.41;95.35;96614.16;5037007;28;20253;-62
2021/11/27 08:24:29;;;;;;;7.45;3.83;;;;;;;1.09;95.83;96620.09;5039613;28;20033;-62
2021/11/27 08:26:55;;;;;;;7.45;3.65;;;;;;;0.92;96.44;96622.78;5038762;28;20154;-62
2021/11/27 08:29:20;;;;;;;5.20;3.42;;;;;;;1.62;96.39;96634.44;5042511;28;20037;-62
2021/11/27 08:31:48;;;;;;;9.10;3.80;;;;;;;2.31;94.82;96633.72;5037230;28;20153;-63
2021/11/27 08:34:14;;;;;;;4.75;3.20;;;;;;;2.85;93.07;96642.56;5044370;28;20040;-62
2021/11/27 08:36:40;;;;;;;5.82;3.08;;;;;;;3.41;89.29;96645.47;5034102;28;20044;-62
2021/11/27 08:39:05;;;;;;;4.00;2.63;;;;;;;3.45;87.56;96644.69;5033080;28;20048;-61
2021/11/27 08:41:31;;;;;;;4.72;2.70;;;;;;;3.48;82.25;96651.31;5043649;28;20037;-61
2021/11/27 08:43:56;;;;;;;8.57;3.10;;;;;;;4.85;83.83;96647.22;5040556;28;20148;-60
2021/11/27 08:46:22;;;;;;;4.55;2.95;;;;;;;4.05;81.14;96655.72;5040429;28;20050;-61
2021/11/27 08:48:47;;;;;;;4.43;2.80;;;;;;;2.92;84.13;96657.16;5036238;28;20546;-61
2021/11/27 08:51:13;;;;;;;4.03;2.58;;;;;;;3.36;83.46;96650.75;5038007;28;20844;-61
2021/11/27 08:53:39;;;;;;;4.93;2.70;;;;;;;3.22;84.77;96661.81;5038467;28;20041;-61
2021/11/27 08:56:07;;;;;;;5.20;3.20;;;;;;;4.09;81.63;96667.38;5033774;28;20037;-61
2021/11/27 08:58:32;;;;;;;4.70;2.85;;;;;;;5.21;77.72;96673.66;5039601;28;20069;-61
2021/11/27 09:00:58;;;;;;;4.43;2.30;;;;;;;4.71;77.93;96684.09;5035961;28;20047;-61
2021/11/27 09:03:23;;;;;;;5.80;3.67;;;;;;;5.61;76.79;96686.00;5033404;28;20044;-61
2021/11/27 09:05:49;;;;;;;6.15;3.25;;;;;;;5.50;76.78;96689.00;5040436;28;20064;-61
2021/11/27 09:08:15;;;;;;;6.30;3.13;;;;;;;5.73;74.39;96687.56;5042619;28;20047;-61
2021/11/27 09:10:40;;;;;;;5.57;2.90;;;;;;;6.02;73.90;96693.81;5036481;28;20051;-61
2021/11/27 09:13:06;;;;;;;8.45;5.35;;;;;;;5.89;72.89;96698.91;5042404;28;20046;-61
2021/11/27 09:15:31;;;;;;;5.07;3.28;;;;;;;6.39;71.94;96705.84;5042429;28;20410;-61
2021/11/27 09:17:57;;;;;;;8.50;3.95;;;;;;;6.29;71.57;96716.53;5043844;28;20029;-61
2021/11/27 09:20:23;;;;;;;5.75;3.10;;;;;;;6.01;73.11;96710.03;5040002;28;20095;-61
2021/11/27 09:22:48;;;;;;;6.10;3.28;;;;;;;5.82;73.24;96710.66;5041637;28;20052;-61
2021/11/27 09:25:14;;;;;;;5.40;3.35;;;;;;;6.32;72.84;96720.53;5043070;28;20037;-62
2021/11/27 09:27:39;;;;;;;4.32;3.25;;;;;;;6.19;70.77;96716.59;5043536;28;20078;-61
2021/11/27 09:30:06;;;;;;;7.72;3.30;;;;;;;5.93;72.61;96719.34;5043486;28;20472;-61
2021/11/27 09:32:32;;;;;;;7.28;5.28;;;;;;;6.09;73.20;96729.94;5042924;28;20379;-61
2021/11/27 09:34:58;;;;;;;8.32;6.03;;;;;;;6.49;71.36;96731.59;5038452;28;20029;-61
2021/11/27 09:37:25;;;;;;;5.60;3.20;;;;;;;6.43;70.76;96740.66;5040987;28;20059;-61
2021/11/27 09:39:51;;;;;;;5.70;3.67;;;;;;;6.28;72.23;96740.75;5041779;28;20486;-61
2021/11/27 09:42:17;;;;;;;4.78;3.00;;;;;;;6.37;70.80;96742.56;5039953;28;20048;-61
2021/11/27 09:44:47;;;;;;;6.50;3.90;;;;;;;6.61;69.83;96745.31;5039215;28;20021;-61
2021/11/27 09:47:12;;;;;;;7.18;3.88;;;;;;;6.75;70.50;96755.34;5033892;28;20048;-61
2021/11/27 09:49:38;;;;;;;5.45;3.45;;;;;;;6.04;69.93;96746.72;5040259;28;21149;-61
2021/11/27 09:52:03;;;;;;;6.63;3.67;;;;;;;5.35;75.08;96753.59;5034874;28;20124;-61
2021/11/27 09:54:30;;;;;;;6.25;3.65;;;;;;;5.90;72.86;96757.13;5051505;28;20091;-61
2021/11/27 09:56:56;;;;;;;10.68;4.68;;;;;;;5.86;72.38;96755.28;5037714;28;20037;-61
2021/11/27 09:59:21;;;;;;;6.38;4.10;;;;;;;6.18;69.95;96758.34;5040163;28;20611;-61
2021/11/27 10:01:50;;;;;;;7.88;5.38;;;;;;;6.39;68.20;96763.56;5033592;28;20036;-61
2021/11/27 10:04:16;;;;;;;8.15;4.28;;;;;;;6.45;68.54;96773.09;5040292;28;20071;-61
2021/11/27 10:06:43;;;;;;;8.27;4.93;;;;;;;5.12;71.70;96768.22;5018586;28;20116;-61
2021/11/27 10:09:11;;;;;;;8.95;4.38;;;;;;;4.62;75.81;96781.22;5025437;28;20053;-61
2021/11/27 10:11:36;;;;;;;13.35;11.38;;;;;;;4.43;76.93;96780.13;5037489;28;20130;-61
2021/11/27 10:14:02;;;;;;;12.15;7.35;;;;;;;4.17;79.38;96781.91;5040832;28;20491;-61
2021/11/27 10:16:31;;;;;;;12.40;6.43;;;;;;;3.99;80.64;96778.66;5029137;28;20040;-61
2021/11/27 10:19:04;;;;;;;6.15;4.53;;;;;;;3.94;79.89;96783.94;5042087;28;20043;-61
2021/11/27 10:21:29;;;;;;;7.95;5.85;;;;;;;3.70;78.57;96785.47;5039401;28;20671;-61
2021/11/27 10:23:55;;;;;;;8.35;5.05;;;;;;;3.66;76.98;96785.94;5040412;28;20099;-61
2021/11/27 10:26:33;;;;;;;7.07;4.38;;;;;;;3.43;77.47;96789.00;5033561;28;20098;-61
2021/11/27 10:29:13;;;;;;;7.20;4.63;;;;;;;3.48;76.70;96798.84;5039543;28;20025;-61
2021/11/27 10:31:38;;;;;;;6.60;4.27;;;;;;;4.40;72.25;96794.72;5037306;28;20751;-61
2021/11/27 10:34:04;;;;;;;8.38;4.13;;;;;;;5.17;69.76;96797.44;5033923;28;20028;-61
2021/11/27 10:36:32;;;;;;;8.32;3.70;;;;;;;5.12;67.04;96795.56;5040649;28;20773;-61
2021/11/27 10:39:05;;;;;;;6.93;3.20;;;;;;;4.80;67.27;96798.50;5033620;28;20118;-61
2021/11/27 10:41:37;;;;;;;5.60;3.70;;;;;;;4.78;69.79;96795.28;5034589;28;20132;-61
2021/11/27 10:44:07;;;;;;;7.43;3.10;;;;;;;4.18;69.37;96810.03;5035293;28;20024;-61
2021/11/27 10:46:36;;;;;;;;;;;;;;;4.05;70.76;96813.97;5037320;28;20044;-61
2021/11/27 10:49:03;;;;;;;7.85;3.90;;;;;;;3.77;71.55;96812.50;5039345;28;20015;-61
2021/11/27 10:51:29;;;;;;;8.43;3.78;;;;;;;3.82;72.29;96810.69;5036007;28;20049;-61
2021/11/27 10:53:56;;;;;;;7.80;4.15;;;;;;;3.64;72.38;96816.41;5038753;28;20029;-61
2021/11/27 10:56:31;;;;;;;9.57;3.42;;;;;;;3.93;74.20;96826.63;5037914;28;20053;-61
2021/11/27 10:59:00;;;;;;;5.18;3.25;;;;;;;3.60;72.50;96824.06;5017077;28;20025;-60
2021/11/27 11:01:26;;;;;;;7.65;3.38;;;;;;;3.75;73.92;96822.56;5036379;28;20656;-61
2021/11/27 11:03:52;;;;;;;7.13;3.50;;;;;;;3.91;73.82;96823.44;5035739;28;20037;-61
2021/11/27 11:06:44;;;;;;;6.63;3.47;;;;;;;3.80;75.39;96822.59;5033260;28;20068;-61
2021/11/27 11:09:12;;;;;;;5.53;3.70;;;;;;;3.64;75.94;96835.75;5040791;28;20395;-61
2021/11/27 11:11:37;;;;;;;7.45;4.10;;;;;;;3.40;74.26;96829.25;5041471;28;20045;-61
2021/11/27 11:14:21;;;;;;;7.22;4.30;;;;;;;3.35;75.61;96832.66;5041541;28;20041;-61
2021/11/27 11:16:55;;;;;;;8.73;5.55;;;;;;;3.52;75.67;96827.22;5034999;28;20178;-61
2021/11/27 11:19:20;;;;;;;11.52;7.95;;;;;;;3.51;74.10;96825.59;5040552;28;20051;-61
2021/11/27 11:22:12;;;;;;;6.80;4.70;;;;;;;3.50;74.89;96841.75;5041260;28;20772;-61
2021/11/27 11:24:40;;;;;;;9.07;4.63;;;;;;;3.54;74.49;96840.19;5021942;28;20051;-61
2021/11/27 11:27:09;;;;;;;9.70;4.40;;;;;;;3.50;73.46;96839.91;5040650;28;20117;-61
2021/11/27 11:29:44;;;;;;;9.00;4.35;;;;;;;3.41;70.86;96844.06;5041513;28;20519;-61
2021/11/27 11:32:16;;;;;;;9.15;3.90;;;;;;;3.74;71.26;96847.44;5040494;28;20033;-61
2021/11/27 11:34:42;;;;;;;8.10;3.72;;;;;;;3.79;71.67;96852.78;5037085;28;20037;-61
2021/11/27 11:37:08;;;;;;;10.00;4.38;;;;;;;3.92;70.81;96854.16;5040166;28;20349;-61